createdAt,value
2023-02-18T00:00:18.258Z,60.50
2023-02-18T00:02:45.813Z,90.70
2023-02-18T00:05:13.399Z,81.60
2023-02-18T00:07:41.305Z,61.10
2023-02-18T00:10:12.020Z,75.20
2023-02-18T00:12:39.105Z,1.00
2023-02-18T00:15:06.689Z,67.20
2023-02-18T00:17:33.819Z,79.20
2023-02-18T00:20:00.549Z,80.50
2023-02-18T00:22:27.351Z,51.50
2023-02-18T00:24:54.037Z,71.90
2023-02-18T00:27:20.825Z,1.00
2023-02-18T00:29:47.579Z,7.60
2023-02-18T00:32:14.391Z,1.00
2023-02-18T00:34:41.184Z,1.00
2023-02-18T00:37:07.952Z,1.00
2023-02-18T00:39:34.661Z,1.00
2023-02-18T00:42:01.412Z,22.40
2023-02-18T00:44:28.187Z,33.70
2023-02-18T00:46:54.848Z,68.40
2023-02-18T00:49:21.557Z,82.90
2023-02-18T00:51:48.272Z,79.10
2023-02-18T00:54:14.988Z,1.00
2023-02-18T00:56:41.706Z,1.00
2023-02-18T00:59:08.489Z,1.00
2023-02-18T01:01:35.430Z,1.00
2023-02-18T01:04:02.294Z,1.00
2023-02-18T01:06:29.115Z,1.00
2023-02-18T01:08:56.130Z,1.00
2023-02-18T01:11:22.919Z,5.80
2023-02-18T01:13:49.661Z,1.00
2023-02-18T01:16:17.140Z,1.00
2023-02-18T01:18:44.033Z,72.80
2023-02-18T01:21:11.046Z,18.90
2023-02-18T01:23:39.113Z,1.00
2023-02-18T01:26:06.594Z,36.00
2023-02-18T01:28:34.241Z,64.30
2023-02-18T01:31:07.188Z,87.20
2023-02-18T01:33:34.000Z,77.00
2023-02-18T01:36:00.839Z,11.20
2023-02-18T01:38:27.560Z,1.00
2023-02-18T01:40:54.950Z,1.00
2023-02-18T01:43:22.823Z,22.60
2023-02-18T01:45:52.584Z,34.30
2023-02-18T01:48:42.015Z,33.60
2023-02-18T01:51:11.969Z,58.10
2023-02-18T01:54:00.785Z,18.90
2023-02-18T01:56:47.094Z,13.30
2023-02-18T01:59:23.620Z,1.00
2023-02-18T02:01:50.698Z,1.00
2023-02-18T02:04:17.940Z,1.00
2023-02-18T02:06:44.795Z,1.00
2023-02-18T02:09:14.621Z,1.00
2023-02-18T02:12:20.005Z,11.70
2023-02-18T02:14:52.936Z,12.50
2023-02-18T02:17:49.546Z,11.90
2023-02-18T02:20:41.325Z,71.70
2023-02-18T02:23:22.929Z,77.10
2023-02-18T02:26:10.329Z,1.00
2023-02-18T02:29:01.897Z,1.00
2023-02-18T02:31:49.759Z,79.80
2023-02-18T02:34:37.900Z,89.30
2023-02-18T02:37:17.139Z,42.20
2023-02-18T02:39:57.895Z,1.00
2023-02-18T02:42:46.524Z,1.00
2023-02-18T02:45:41.036Z,1.00
2023-02-18T02:48:26.530Z,1.00
2023-02-18T02:51:09.315Z,91.30
2023-02-18T02:53:37.643Z,69.00
2023-02-18T02:56:04.563Z,85.20
2023-02-18T02:58:31.833Z,90.70
2023-02-18T03:01:12.030Z,67.80
2023-02-18T03:03:44.955Z,87.00
2023-02-18T03:06:25.904Z,1.00
2023-02-18T03:09:21.845Z,86.50
2023-02-18T03:12:27.312Z,87.70
2023-02-18T03:15:26.665Z,74.80
2023-02-18T03:18:05.186Z,87.90
2023-02-18T03:20:36.663Z,1.00
2023-02-18T03:23:07.183Z,1.00
2023-02-18T03:25:36.305Z,1.00
2023-02-18T03:28:08.566Z,1.00
2023-02-18T03:30:50.842Z,1.00
2023-02-18T03:33:24.827Z,1.00
2023-02-18T03:35:54.300Z,84.20
2023-02-18T03:38:26.067Z,70.10
2023-02-18T03:40:52.862Z,66.90
2023-02-18T03:43:19.651Z,73.00
2023-02-18T03:45:46.564Z,67.70
2023-02-18T03:48:13.484Z,66.40
2023-02-18T03:50:40.221Z,52.50
2023-02-18T03:53:06.914Z,54.20
2023-02-18T03:55:33.670Z,29.50
2023-02-18T03:58:00.421Z,6.00
2023-02-18T04:00:27.144Z,61.60
2023-02-18T04:02:53.846Z,37.40
2023-02-18T04:05:20.612Z,16.40
2023-02-18T04:07:47.345Z,38.70
2023-02-18T04:10:14.143Z,1.00
2023-02-18T04:12:41.009Z,1.00
2023-02-18T04:15:08.105Z,1.00
2023-02-18T04:17:35.345Z,31.60
2023-02-18T04:20:02.172Z,64.50
2023-02-18T04:22:28.953Z,5.50
2023-02-18T04:24:55.668Z,3.20
2023-02-18T04:27:22.677Z,1.00
2023-02-18T04:29:49.675Z,1.00
2023-02-18T04:32:16.520Z,1.00
2023-02-18T04:34:43.324Z,1.00
2023-02-18T04:37:10.072Z,1.00
2023-02-18T04:39:36.919Z,1.00
2023-02-18T04:42:08.872Z,1.00
2023-02-18T04:44:37.071Z,1.00
2023-02-18T04:47:05.423Z,1.00
2023-02-18T04:49:32.236Z,1.00
2023-02-18T04:51:59.041Z,91.90
2023-02-18T04:54:25.917Z,86.40
2023-02-18T04:56:52.662Z,77.90
2023-02-18T04:59:19.432Z,1.00
2023-02-18T05:01:46.268Z,1.00
2023-02-18T05:04:13.069Z,1.00
2023-02-18T05:06:39.985Z,1.00
2023-02-18T05:09:07.077Z,1.00
2023-02-18T05:11:33.837Z,1.00
2023-02-18T05:14:00.525Z,1.00
2023-02-18T05:16:27.448Z,1.00
2023-02-18T05:18:54.238Z,1.00
2023-02-18T05:21:21.018Z,1.00
2023-02-18T05:23:47.751Z,1.00
2023-02-18T05:26:14.523Z,1.00
2023-02-18T05:28:41.267Z,1.00
2023-02-18T05:31:08.215Z,1.00
2023-02-18T05:33:34.997Z,1.00
2023-02-18T05:36:01.680Z,1.00
2023-02-18T05:38:28.512Z,1.00
2023-02-18T05:40:56.220Z,1.00
2023-02-18T05:43:22.967Z,1.00
2023-02-18T05:45:49.657Z,1.00
2023-02-18T05:48:16.426Z,1.00
2023-02-18T05:50:43.136Z,1.00
2023-02-18T05:53:09.951Z,27.10
2023-02-18T05:55:39.109Z,30.10
2023-02-18T05:58:06.496Z,65.10
2023-02-18T06:00:33.320Z,77.60
2023-02-18T06:03:00.261Z,82.90
2023-02-18T06:05:27.113Z,1.00
2023-02-18T06:07:56.350Z,1.00
2023-02-18T06:10:23.389Z,1.00
2023-02-18T06:12:50.383Z,51.80
2023-02-18T06:15:17.250Z,71.40
2023-02-18T06:17:44.015Z,80.50
2023-02-18T06:20:11.379Z,1.00
2023-02-18T06:22:38.111Z,1.00
2023-02-18T06:25:05.115Z,1.00
2023-02-18T06:27:31.801Z,69.70
2023-02-18T06:29:58.580Z,74.00
2023-02-18T06:32:25.455Z,1.00
2023-02-18T06:34:52.215Z,1.00
2023-02-18T06:37:19.075Z,56.30
2023-02-18T06:39:45.825Z,79.20
2023-02-18T06:42:12.532Z,1.00
2023-02-18T06:44:39.282Z,1.00
2023-02-18T06:47:06.171Z,36.60
2023-02-18T06:49:33.237Z,78.30
2023-02-18T06:51:59.991Z,87.30
2023-02-18T06:54:26.725Z,1.00
2023-02-18T06:56:53.854Z,84.50
2023-02-18T06:59:20.523Z,76.90
2023-02-18T07:01:47.284Z,1.00
2023-02-18T07:04:14.038Z,1.00
2023-02-18T07:06:40.826Z,1.00
2023-02-18T07:09:07.832Z,1.00
2023-02-18T07:11:34.594Z,82.90
2023-02-18T07:14:01.471Z,79.10
2023-02-18T07:16:28.274Z,70.30
2023-02-18T07:18:55.036Z,1.00
2023-02-18T07:21:21.983Z,1.00
2023-02-18T07:23:48.748Z,77.20
2023-02-18T07:26:15.609Z,35.10
2023-02-18T07:28:42.957Z,55.20
2023-02-18T07:31:09.941Z,1.00
2023-02-18T07:33:36.848Z,90.90
2023-02-18T07:36:04.310Z,1.00
2023-02-18T07:38:31.100Z,1.00
2023-02-18T07:40:58.869Z,1.00
2023-02-18T07:43:25.653Z,1.00
2023-02-18T07:45:52.540Z,78.50
2023-02-18T07:48:19.330Z,44.80
2023-02-18T07:50:46.710Z,29.50
2023-02-18T07:53:15.857Z,1.00
2023-02-18T07:55:52.114Z,1.00
2023-02-18T07:58:20.285Z,1.00
2023-02-18T08:00:49.434Z,1.00
2023-02-18T08:03:18.037Z,87.90
2023-02-18T08:05:45.286Z,86.70
2023-02-18T08:08:20.350Z,1.00
2023-02-18T08:10:48.069Z,1.00
2023-02-18T08:13:15.152Z,88.10
2023-02-18T08:15:42.347Z,1.00
2023-02-18T08:18:14.614Z,89.20
2023-02-18T08:20:41.374Z,1.00
2023-02-18T08:23:08.147Z,91.60
2023-02-18T08:25:34.848Z,82.40
2023-02-18T08:28:01.583Z,76.90
2023-02-18T08:30:28.640Z,83.50
2023-02-18T08:32:55.524Z,77.70
2023-02-18T08:35:22.327Z,63.10
2023-02-18T08:37:53.448Z,62.90
2023-02-18T08:40:21.490Z,62.60
2023-02-18T08:42:48.387Z,23.30
2023-02-18T08:45:15.192Z,1.00
2023-02-18T08:48:17.598Z,1.00
2023-02-18T08:50:28.712Z,1.00
2023-02-18T08:52:56.305Z,1.00
2023-02-18T08:55:24.134Z,1.00
2023-02-18T08:57:50.963Z,1.00
2023-02-18T09:00:18.950Z,1.00
2023-02-18T09:02:47.440Z,1.00
2023-02-18T09:05:15.542Z,1.00
2023-02-18T09:07:42.366Z,1.00
2023-02-18T09:10:10.541Z,90.30
2023-02-18T09:12:37.426Z,71.80
2023-02-18T09:15:04.921Z,70.10
2023-02-18T09:17:31.711Z,75.80
2023-02-18T09:19:58.782Z,75.50
2023-02-18T09:22:25.508Z,76.40
2023-02-18T09:24:52.232Z,70.50
2023-02-18T09:27:19.009Z,64.30
2023-02-18T09:29:46.598Z,61.00
2023-02-18T09:32:19.987Z,69.70
2023-02-18T09:34:52.302Z,60.70
2023-02-18T09:37:19.106Z,66.30
2023-02-18T09:39:46.146Z,66.50
2023-02-18T09:42:17.599Z,37.90
2023-02-18T09:44:56.548Z,1.00
2023-02-18T09:47:37.762Z,31.40
2023-02-18T09:50:13.833Z,45.10
2023-02-18T09:52:40.672Z,42.30
2023-02-18T09:55:30.071Z,2.60
2023-02-18T09:58:04.589Z,17.40
2023-02-18T10:00:39.254Z,4.00
2023-02-18T10:03:24.592Z,1.00
2023-02-18T10:06:10.426Z,1.00
2023-02-18T10:08:43.190Z,1.00
2023-02-18T10:11:16.691Z,1.00
2023-02-18T10:13:44.807Z,1.00
2023-02-18T10:16:17.704Z,1.00
2023-02-18T10:18:49.811Z,1.00
2023-02-18T10:21:37.005Z,1.00
2023-02-18T10:24:31.526Z,1.00
2023-02-18T10:26:59.713Z,1.00
2023-02-18T10:29:27.650Z,1.00
2023-02-18T10:32:05.969Z,1.00
2023-02-18T10:34:52.028Z,1.00
2023-02-18T10:38:04.500Z,1.00
2023-02-18T10:41:03.310Z,1.00
2023-02-18T10:43:35.810Z,1.00
2023-02-18T10:46:16.030Z,1.00
2023-02-18T10:48:51.671Z,1.00
2023-02-18T10:51:25.996Z,1.00
2023-02-18T10:53:54.384Z,1.00
2023-02-18T10:56:48.681Z,1.00
2023-02-18T10:59:22.597Z,1.00
2023-02-18T11:02:05.686Z,1.00
2023-02-18T11:04:39.719Z,1.00
2023-02-18T11:07:14.285Z,1.00
2023-02-18T11:09:54.448Z,1.00
2023-02-18T11:12:25.588Z,1.00
2023-02-18T11:15:08.018Z,1.00
2023-02-18T11:17:37.832Z,1.00
2023-02-18T11:20:32.295Z,1.00
2023-02-18T11:23:08.040Z,1.00
2023-02-18T11:25:37.781Z,5.00
2023-02-18T11:28:23.504Z,1.00
2023-02-18T11:30:56.113Z,29.70
2023-02-18T11:33:29.137Z,28.70
2023-02-18T11:35:58.040Z,23.50
2023-02-18T11:38:37.441Z,62.80
2023-02-18T11:41:10.725Z,26.00
2023-02-18T11:43:42.641Z,23.90
2023-02-18T11:46:18.220Z,11.10
2023-02-18T11:48:46.125Z,1.00
2023-02-18T11:51:18.667Z,1.00
2023-02-18T11:54:06.524Z,1.00
2023-02-18T11:56:36.121Z,92.10
2023-02-18T11:59:04.233Z,78.30
2023-02-18T12:01:47.556Z,79.20
2023-02-18T12:04:16.544Z,70.70
2023-02-18T12:07:08.684Z,61.50
2023-02-18T12:09:40.288Z,52.10
2023-02-18T12:12:16.007Z,40.10
2023-02-18T12:14:43.563Z,41.90
2023-02-18T12:17:43.535Z,46.30
2023-02-18T12:20:26.903Z,49.90
2023-02-18T12:23:28.834Z,44.70
2023-02-18T12:26:29.588Z,24.80
2023-02-18T12:29:22.699Z,21.80
2023-02-18T12:32:13.424Z,61.80
2023-02-18T12:35:00.454Z,62.10
2023-02-18T12:37:32.955Z,67.00
2023-02-18T12:39:59.676Z,69.00
2023-02-18T12:42:40.766Z,74.00
2023-02-18T12:45:19.288Z,73.60
2023-02-18T12:48:25.895Z,72.30
2023-02-18T12:51:13.236Z,69.10
2023-02-18T12:53:39.928Z,71.90
2023-02-18T12:56:25.291Z,69.50
2023-02-18T12:59:09.868Z,62.10
2023-02-18T13:02:14.324Z,69.60
2023-02-18T13:04:50.629Z,63.40
2023-02-18T13:07:53.415Z,65.30
2023-02-18T13:10:50.745Z,63.20
2023-02-18T13:13:45.252Z,38.30
2023-02-18T13:16:16.199Z,38.10
2023-02-18T13:18:50.406Z,60.60
2023-02-18T13:21:17.328Z,22.50
2023-02-18T13:24:10.031Z,20.40
2023-02-18T13:26:37.631Z,24.60
2023-02-18T13:29:09.962Z,20.60
2023-02-18T13:31:57.846Z,30.00
2023-02-18T13:34:33.719Z,46.20
2023-02-18T13:37:03.445Z,48.00
2023-02-18T13:39:31.333Z,44.30
2023-02-18T13:42:23.964Z,40.10
2023-02-18T13:44:56.897Z,29.10
2023-02-18T13:47:45.086Z,32.70
2023-02-18T13:50:29.133Z,48.10
2023-02-18T13:53:07.640Z,37.50
2023-02-18T13:55:45.959Z,50.80
2023-02-18T13:58:19.950Z,37.50
2023-02-18T14:01:02.184Z,14.30
2023-02-18T14:03:38.492Z,1.30
2023-02-18T14:06:15.786Z,4.20
2023-02-18T14:08:43.936Z,1.00
2023-02-18T14:11:13.832Z,1.00
2023-02-18T14:13:55.614Z,1.00
2023-02-18T14:16:22.780Z,1.00
2023-02-18T14:19:00.940Z,1.00
2023-02-18T14:21:39.535Z,1.00
2023-02-18T14:24:09.861Z,1.00
2023-02-18T14:26:45.691Z,1.00
2023-02-18T14:29:30.082Z,1.00
2023-02-18T14:32:04.142Z,1.00
2023-02-18T14:34:42.983Z,1.00
2023-02-18T14:37:18.610Z,1.00
2023-02-18T14:40:08.721Z,1.00
2023-02-18T14:43:07.356Z,90.20
2023-02-18T14:45:57.201Z,89.60
2023-02-18T14:49:01.283Z,92.20
2023-02-18T14:51:31.475Z,89.20
2023-02-18T14:54:05.101Z,89.20
2023-02-18T14:56:33.247Z,88.80
2023-02-18T14:59:02.696Z,85.30
2023-02-18T15:01:32.888Z,83.20
2023-02-18T15:04:01.679Z,82.20
2023-02-18T15:06:28.391Z,83.70
2023-02-18T15:08:55.226Z,77.70
2023-02-18T15:11:35.603Z,79.20
2023-02-18T15:14:05.178Z,76.00
2023-02-18T15:16:34.034Z,79.10
2023-02-18T15:19:04.488Z,77.40
2023-02-18T15:21:35.488Z,76.20
2023-02-18T15:24:31.119Z,77.40
2023-02-18T15:27:05.592Z,77.20
2023-02-18T15:29:35.291Z,75.20
2023-02-18T15:32:21.265Z,76.20
2023-02-18T15:35:15.345Z,78.00
2023-02-18T15:37:46.063Z,79.40
2023-02-18T15:40:16.750Z,79.90
2023-02-18T15:42:47.462Z,80.60
2023-02-18T15:45:24.481Z,77.60
2023-02-18T15:47:57.186Z,78.70
2023-02-18T15:50:34.162Z,77.40
2023-02-18T15:53:07.270Z,77.50
2023-02-18T15:55:41.873Z,75.90
2023-02-18T15:58:14.548Z,77.60
2023-02-18T16:00:48.644Z,78.10
2023-02-18T16:03:27.428Z,76.20
2023-02-18T16:06:37.329Z,79.40
2023-02-18T16:09:14.981Z,79.40
2023-02-18T16:11:45.244Z,79.40
2023-02-18T16:14:32.774Z,79.00
2023-02-18T16:17:21.820Z,79.80
2023-02-18T16:20:03.919Z,83.50
2023-02-18T16:22:31.341Z,83.20
2023-02-18T16:25:17.110Z,84.70
2023-02-18T16:28:03.343Z,88.40
2023-02-18T16:30:33.163Z,87.60
2023-02-18T16:33:00.674Z,84.80
2023-02-18T16:35:32.742Z,89.20
2023-02-18T16:38:05.217Z,90.50
2023-02-18T16:40:38.173Z,92.00
2023-02-18T16:43:20.114Z,92.00
2023-02-18T16:45:52.730Z,1.00
2023-02-18T16:48:30.752Z,1.00
2023-02-18T16:51:00.503Z,1.00
2023-02-18T16:53:27.321Z,1.00
2023-02-18T16:55:54.149Z,1.00
2023-02-18T16:58:21.060Z,1.00
2023-02-18T17:00:50.958Z,1.00
2023-02-18T17:03:18.389Z,1.00
2023-02-18T17:05:45.346Z,1.00
2023-02-18T17:08:24.119Z,1.00
2023-02-18T17:10:58.659Z,1.00
2023-02-18T17:13:28.508Z,1.00
2023-02-18T17:15:56.648Z,1.00
2023-02-18T17:18:24.443Z,1.00
2023-02-18T17:20:52.993Z,1.00
2023-02-18T17:23:23.066Z,1.00
2023-02-18T17:25:51.453Z,1.00
2023-02-18T17:28:21.555Z,1.00
2023-02-18T17:30:53.018Z,1.00
2023-02-18T17:33:19.875Z,1.00
2023-02-18T17:35:46.658Z,1.00
2023-02-18T17:38:15.789Z,1.00
2023-02-18T17:40:43.369Z,1.00
2023-02-18T17:43:15.189Z,1.00
2023-02-18T17:45:57.658Z,1.00
2023-02-18T17:48:25.720Z,1.00
2023-02-18T17:50:52.960Z,1.00
2023-02-18T17:53:20.173Z,1.00
2023-02-18T17:55:47.929Z,1.00
2023-02-18T17:58:16.211Z,14.10
2023-02-18T18:00:52.263Z,28.40
2023-02-18T18:03:19.632Z,37.40
2023-02-18T18:05:49.458Z,41.40
2023-02-18T18:08:16.639Z,32.50
2023-02-18T18:10:52.925Z,56.90
2023-02-18T18:13:26.163Z,65.90
2023-02-18T18:15:53.380Z,75.30
2023-02-18T18:18:20.717Z,91.20
2023-02-18T18:20:52.650Z,1.00
2023-02-18T18:23:20.595Z,1.00
2023-02-18T18:25:51.090Z,51.20
2023-02-18T18:28:18.285Z,63.00
2023-02-18T18:30:47.383Z,65.10
2023-02-18T18:33:21.911Z,66.70
2023-02-18T18:35:51.862Z,69.60
2023-02-18T18:38:19.989Z,74.90
2023-02-18T18:40:47.676Z,85.70
2023-02-18T18:43:17.988Z,1.00
2023-02-18T18:45:45.309Z,1.00
2023-02-18T18:48:12.206Z,6.90
2023-02-18T18:50:39.887Z,66.30
2023-02-18T18:53:12.888Z,1.00
2023-02-18T18:55:40.966Z,66.60
2023-02-18T18:58:07.738Z,27.30
2023-02-18T19:00:38.081Z,61.30
2023-02-18T19:03:05.733Z,85.90
2023-02-18T19:05:35.469Z,1.00
2023-02-18T19:08:05.206Z,1.00
2023-02-18T19:10:35.555Z,1.00
2023-02-18T19:13:04.644Z,60.20
2023-02-18T19:15:31.929Z,87.70
2023-02-18T19:17:58.873Z,1.00
2023-02-18T19:20:36.031Z,1.00
2023-02-18T19:23:03.967Z,1.00
2023-02-18T19:25:31.532Z,1.00
2023-02-18T19:27:58.559Z,9.70
2023-02-18T19:30:43.580Z,36.10
2023-02-18T19:33:12.996Z,61.10
2023-02-18T19:35:40.739Z,66.70
2023-02-18T19:38:10.207Z,72.00
2023-02-18T19:40:37.987Z,75.60
2023-02-18T19:43:05.240Z,80.50
2023-02-18T19:45:32.449Z,82.80
2023-02-18T19:48:00.068Z,84.90
2023-02-18T19:50:28.843Z,86.70
2023-02-18T19:52:56.002Z,87.90
2023-02-18T19:55:23.421Z,88.50
2023-02-18T19:57:51.152Z,88.80
2023-02-18T20:00:20.131Z,88.90
2023-02-18T20:02:47.107Z,89.00
2023-02-18T20:05:14.293Z,89.00
2023-02-18T20:07:46.153Z,89.10
2023-02-18T20:10:16.052Z,89.30
2023-02-18T20:12:42.959Z,89.50
2023-02-18T20:15:10.394Z,89.90
2023-02-18T20:17:38.728Z,90.10
2023-02-18T20:20:06.506Z,90.50
2023-02-18T20:22:33.367Z,90.70
2023-02-18T20:25:00.347Z,90.80
2023-02-18T20:27:27.234Z,90.90
2023-02-18T20:29:53.999Z,90.90
2023-02-18T20:32:20.958Z,91.00
2023-02-18T20:34:47.861Z,91.00
2023-02-18T20:37:14.784Z,91.00
2023-02-18T20:39:41.770Z,91.00
2023-02-18T20:42:16.326Z,91.10
2023-02-18T20:44:44.130Z,91.10
2023-02-18T20:47:13.564Z,91.10
2023-02-18T20:49:41.031Z,91.10
2023-02-18T20:52:09.292Z,91.20
2023-02-18T20:54:36.698Z,91.20
2023-02-18T20:57:04.081Z,91.20
2023-02-18T20:59:33.250Z,91.30
2023-02-18T21:02:00.477Z,91.30
2023-02-18T21:04:27.621Z,91.30
2023-02-18T21:06:55.385Z,91.30
2023-02-18T21:09:22.379Z,91.40
2023-02-18T21:11:49.434Z,91.40
2023-02-18T21:14:16.654Z,91.40
2023-02-18T21:16:43.517Z,91.40
2023-02-18T21:19:16.422Z,91.40
2023-02-18T21:21:44.837Z,91.40
2023-02-18T21:24:12.020Z,91.40
2023-02-18T21:26:39.383Z,91.40
2023-02-18T21:29:08.159Z,91.40
2023-02-18T21:31:40.565Z,91.40
2023-02-18T21:34:10.146Z,91.40
2023-02-18T21:36:36.913Z,91.40
2023-02-18T21:39:06.856Z,91.50
2023-02-18T21:41:37.128Z,91.50
2023-02-18T21:44:04.946Z,91.50
2023-02-18T21:46:34.170Z,91.50
2023-02-18T21:49:10.217Z,91.50
2023-02-18T21:52:00.200Z,91.50
2023-02-18T21:54:32.666Z,91.50
2023-02-18T21:57:00.717Z,91.50
2023-02-18T21:59:28.673Z,91.50
2023-02-18T22:01:56.647Z,91.50
2023-02-18T22:04:23.664Z,91.50
2023-02-18T22:06:50.416Z,91.50
2023-02-18T22:09:17.199Z,91.50
2023-02-18T22:11:44.153Z,91.50
2023-02-18T22:14:12.742Z,91.50
2023-02-18T22:16:39.708Z,91.50
2023-02-18T22:19:06.611Z,91.50
2023-02-18T22:21:33.781Z,91.50
2023-02-18T22:24:00.597Z,91.50
2023-02-18T22:26:27.610Z,91.50
2023-02-18T22:28:55.801Z,91.50
2023-02-18T22:31:24.043Z,91.50
2023-02-18T22:33:53.504Z,91.60
2023-02-18T22:36:21.986Z,91.60
2023-02-18T22:38:49.342Z,91.60
2023-02-18T22:41:18.449Z,91.50
2023-02-18T22:43:45.197Z,91.60
2023-02-18T22:46:15.296Z,91.60
2023-02-18T22:48:42.636Z,91.60
2023-02-18T22:51:14.349Z,91.60
2023-02-18T22:53:42.222Z,91.60
2023-02-18T22:56:12.242Z,91.60
2023-02-18T22:58:39.397Z,91.60
2023-02-18T23:01:07.084Z,91.60
2023-02-18T23:03:35.034Z,91.60
2023-02-18T23:06:04.336Z,91.60
2023-02-18T23:08:31.855Z,91.60
2023-02-18T23:11:10.832Z,91.60
2023-02-18T23:13:38.165Z,91.60
2023-02-18T23:16:08.491Z,91.60
2023-02-18T23:18:35.926Z,91.60
2023-02-18T23:21:17.204Z,91.60
2023-02-18T23:23:50.376Z,91.60
2023-02-18T23:26:17.700Z,91.60
2023-02-18T23:28:47.846Z,91.60
2023-02-18T23:31:20.601Z,91.60
2023-02-18T23:33:49.804Z,91.60
2023-02-18T23:36:19.965Z,91.60
2023-02-18T23:38:51.486Z,91.60
2023-02-18T23:41:19.335Z,91.60
2023-02-18T23:43:46.595Z,91.60
2023-02-18T23:46:15.877Z,91.60
2023-02-18T23:48:42.735Z,91.60
2023-02-18T23:51:12.690Z,91.60
2023-02-18T23:53:39.852Z,91.60
2023-02-18T23:56:14.683Z,91.60
2023-02-18T23:58:43.065Z,91.60
